Time;durP1;ratioP1;P1;durP2;ratioP2;P2;SDS_P1;SDS_P2;PMS_P1;PMS_P2;Temp;Humidity;BMP_temperature;BMP_pressure;BME280_temperature;BME280_humidity;BME280_pressure;Samples;Min_cycle;Max_cycle;Signal;HPM_P1;HPM_P2
2022/05/16 00:04:19;;;;;;;4.35;2.53;;;;;;;19.64;46.74;100063.72;10377533;28;20406;-64
2022/05/16 00:09:20;;;;;;;3.95;2.17;;;;;;;19.84;46.69;100096.41;10373411;28;20488;-61
2022/05/16 00:14:22;;;;;;;3.70;3.22;;;;;;;19.60;46.77;100063.22;10373361;28;20195;-63
2022/05/16 00:19:23;;;;;;;4.53;2.38;;;;;;;19.73;46.46;100084.19;10370941;28;20496;-63
2022/05/16 00:24:28;;;;;;;2.95;2.03;;;;;;;19.72;46.12;100077.94;10373564;28;20514;-62
2022/05/16 00:29:30;;;;;;;3.50;2.58;;;;;;;19.66;46.32;100073.28;10372930;28;20488;-62
2022/05/16 00:34:32;;;;;;;4.63;2.35;;;;;;;19.38;46.92;100028.06;10372852;28;20065;-63
2022/05/16 00:39:34;;;;;;;6.75;2.42;;;;;;;19.56;46.93;100060.09;10373826;28;20115;-63
2022/05/16 00:44:36;;;;;;;4.10;2.50;;;;;;;19.56;46.78;100062.78;10372972;28;20586;-63
2022/05/16 00:49:42;;;;;;;4.28;2.33;;;;;;;19.50;47.58;100060.84;10372335;28;20096;-64
2022/05/16 00:54:46;;;;;;;5.28;2.10;;;;;;;19.22;47.60;100017.47;10372177;28;20136;-63
2022/05/16 00:59:55;;;;;;;6.03;2.70;;;;;;;19.36;47.93;100048.16;10371862;28;20407;-63
2022/05/16 01:04:57;;;;;;;6.50;2.67;;;;;;;19.31;48.09;100048.72;10371879;28;20064;-63
2022/05/16 01:09:59;;;;;;;7.60;2.90;;;;;;;19.27;48.07;100055.50;10370448;28;20520;-63
2022/05/16 01:15:03;;;;;;;5.00;2.67;;;;;;;19.24;48.67;100039.69;10374385;28;20053;-63
2022/05/16 01:20:07;;;;;;;5.10;2.78;;;;;;;19.22;48.92;100039.88;10370172;28;20084;-63
2022/05/16 01:25:16;;;;;;;5.72;2.72;;;;;;;19.16;48.91;100034.41;10399285;28;20053;-63
2022/05/16 01:30:22;;;;;;;5.90;3.38;;;;;;;19.09;49.45;100036.97;10368517;28;20051;-63
2022/05/16 01:35:27;;;;;;;4.15;2.50;;;;;;;19.01;49.66;100029.81;10370985;28;20202;-62
2022/05/16 01:40:28;;;;;;;6.38;3.00;;;;;;;18.99;49.86;100044.50;10369125;28;20045;-62
2022/05/16 01:45:30;;;;;;;5.32;2.72;;;;;;;18.92;49.94;100049.78;10370082;28;20148;-62
2022/05/16 01:50:31;;;;;;;4.13;3.30;;;;;;;18.93;50.49;100050.63;10368594;28;20296;-64
2022/05/16 01:55:33;;;;;;;5.43;3.20;;;;;;;18.87;50.23;100041.41;10368189;28;20516;-63
2022/05/16 02:00:36;;;;;;;5.97;4.00;;;;;;;18.83;50.58;100035.50;10373985;28;20148;-64
2022/05/16 02:05:38;;;;;;;4.87;3.40;;;;;;;18.80;50.71;100037.75;10369870;28;20712;-61
2022/05/16 02:10:40;;;;;;;6.20;2.67;;;;;;;18.79;50.13;100042.28;10367429;28;20049;-63
2022/05/16 02:15:44;;;;;;;4.65;3.00;;;;;;;18.75;50.57;100032.91;10369254;28;20067;-62
2022/05/16 02:20:45;;;;;;;8.07;3.20;;;;;;;18.71;50.50;100026.19;10370236;28;20052;-62
2022/05/16 02:25:47;;;;;;;7.32;3.33;;;;;;;18.69;50.65;100029.06;10371711;28;20059;-64
2022/05/16 02:30:49;;;;;;;4.20;2.92;;;;;;;18.68;50.36;100026.56;10368729;28;20121;-63
2022/05/16 02:35:51;;;;;;;9.32;3.08;;;;;;;18.70;50.79;100019.13;10372004;28;20188;-62
2022/05/16 02:40:53;;;;;;;4.32;2.72;;;;;;;18.68;50.20;100016.59;10376228;28;20065;-63
2022/05/16 02:45:55;;;;;;;4.53;3.15;;;;;;;18.71;50.49;100027.03;10377277;28;20123;-62
2022/05/16 02:50:56;;;;;;;5.93;3.72;;;;;;;18.72;50.51;100034.09;10374150;28;20049;-63
2022/05/16 02:55:58;;;;;;;6.38;2.80;;;;;;;18.53;49.77;99997.69;10377754;28;20042;-63
2022/05/16 03:00:59;;;;;;;3.67;2.78;;;;;;;18.70;50.21;100013.72;10376377;28;20310;-63
2022/05/16 03:06:00;;;;;;;4.53;2.80;;;;;;;18.68;49.97;100021.16;10377023;28;20140;-63
2022/05/16 03:11:05;;;;;;;6.28;2.83;;;;;;;18.66;49.45;100010.56;10376230;28;20063;-63
2022/05/16 03:16:06;;;;;;;4.38;2.88;;;;;;;18.65;49.86;100021.53;10373559;28;20063;-64
2022/05/16 03:21:07;;;;;;;5.00;3.10;;;;;;;18.36;49.91;99964.66;10377452;28;20119;-64
2022/05/16 03:26:09;;;;;;;4.70;3.15;;;;;;;18.61;50.36;99996.78;10376413;28;20677;-62
2022/05/16 03:31:11;;;;;;;8.00;3.10;;;;;;;18.13;50.22;99916.19;10375948;28;20064;-62
2022/05/16 03:36:12;;;;;;;6.45;3.13;;;;;;;18.34;50.43;99955.91;10378299;28;20059;-62
2022/05/16 03:41:14;;;;;;;5.13;2.88;;;;;;;18.41;49.91;99971.38;10377781;28;20096;-61
2022/05/16 03:46:15;;;;;;;5.95;2.95;;;;;;;18.55;50.17;99984.03;10385571;28;20540;-63
2022/05/16 03:51:17;;;;;;;5.00;2.40;;;;;;;18.61;49.76;99993.25;10389598;28;20623;-63
2022/05/16 03:56:23;;;;;;;5.30;3.10;;;;;;;18.59;49.60;100001.53;10375097;28;20136;-63
2022/05/16 04:01:26;;;;;;;5.65;2.53;;;;;;;18.62;50.45;100011.94;10372823;28;20057;-63
2022/05/16 04:06:27;;;;;;;6.40;2.40;;;;;;;18.69;50.09;100017.44;10374563;28;20072;-63
2022/05/16 04:11:29;;;;;;;4.15;2.80;;;;;;;18.70;49.42;100017.25;10371762;28;20091;-63
2022/05/16 04:16:31;;;;;;;4.80;2.80;;;;;;;18.67;49.90;100006.84;10372298;28;20144;-63
2022/05/16 04:21:37;;;;;;;5.30;3.05;;;;;;;18.69;50.27;100010.19;10373151;28;20130;-63
2022/05/16 04:26:39;;;;;;;5.38;2.90;;;;;;;18.73;49.54;100003.44;10371816;28;20764;-63
2022/05/16 04:31:41;;;;;;;5.35;3.03;;;;;;;18.79;49.22;100006.41;10371049;28;20136;-63
2022/05/16 04:36:42;;;;;;;4.78;2.80;;;;;;;18.82;49.40;100019.53;10372403;28;20080;-64
2022/05/16 04:47:05;;;;;;;5.68;3.03;;;;;;;18.73;49.34;99998.03;10371964;28;20056;-65
2022/05/16 04:52:07;;;;;;;4.93;2.53;;;;;;;18.97;49.40;100031.19;10371878;28;20049;-63
2022/05/16 04:57:08;;;;;;;4.65;2.50;;;;;;;18.98;49.36;100024.78;10371052;28;20672;-63
2022/05/16 05:02:10;;;;;;;5.15;2.50;;;;;;;19.04;48.89;100032.13;10371238;28;20447;-63
2022/05/16 05:07:12;;;;;;;6.63;3.28;;;;;;;19.06;49.42;100030.06;10371823;28;20705;-63
2022/05/16 05:17:38;;;;;;;6.10;3.60;;;;;;;19.06;49.07;100029.25;10332993;28;20055;-63
2022/05/16 05:22:45;;;;;;;3.55;2.60;;;;;;;19.03;49.87;100021.53;10370879;28;20051;-64
2022/05/16 05:27:51;;;;;;;8.43;3.35;;;;;;;19.06;49.10;100031.94;10370193;28;20053;-63
2022/05/16 05:32:53;;;;;;;6.82;3.30;;;;;;;19.12;49.16;100038.47;10369783;28;20144;-63
2022/05/16 05:37:55;;;;;;;7.07;3.75;;;;;;;19.19;49.36;100034.84;10370779;28;20928;-63
2022/05/16 05:43:03;;;;;;;10.05;3.50;;;;;;;19.34;48.45;100056.44;10369746;28;20045;-62
2022/05/16 05:48:05;;;;;;;3.72;3.33;;;;;;;19.51;48.53;100053.56;10369666;28;20099;-63
2022/05/16 05:53:07;;;;;;;6.00;3.60;;;;;;;19.62;48.58;100055.78;10365707;28;20077;-62
2022/05/16 05:58:08;;;;;;;6.20;3.90;;;;;;;19.56;48.22;100059.22;10368944;28;20054;-63
2022/05/16 06:03:10;;;;;;;5.18;3.70;;;;;;;19.25;49.42;100027.88;10371010;28;20046;-63
2022/05/16 06:08:12;;;;;;;9.48;4.45;;;;;;;19.51;49.78;100064.34;10369995;28;20564;-63
2022/05/16 06:13:13;;;;;;;8.27;4.20;;;;;;;19.55;49.11;100057.56;10378115;28;20132;-64
2022/05/16 06:18:14;;;;;;;10.55;4.45;;;;;;;19.66;49.86;100062.47;10385594;28;20136;-64
2022/05/16 06:23:16;;;;;;;8.85;4.47;;;;;;;19.74;49.60;100065.09;10377273;28;20183;-63
2022/05/16 06:28:24;;;;;;;7.00;5.03;;;;;;;19.82;48.95;100071.44;10376769;28;20046;-63
2022/05/16 06:33:26;;;;;;;7.47;3.95;;;;;;;19.86;49.10;100070.03;10380456;28;20057;-62
2022/05/16 06:38:30;;;;;;;6.10;3.53;;;;;;;19.99;48.93;100067.50;10377824;28;20326;-63
2022/05/16 06:43:34;;;;;;;10.23;4.00;;;;;;;19.93;48.99;100047.47;10376927;28;20132;-62
2022/05/16 06:48:36;;;;;;;9.30;4.68;;;;;;;20.18;48.18;100081.44;10377173;28;20132;-63
2022/05/16 06:53:37;;;;;;;8.88;4.43;;;;;;;20.22;48.08;100080.00;10375715;28;20080;-63
2022/05/16 06:58:39;;;;;;;10.50;3.97;;;;;;;20.24;48.01;100086.91;10375453;28;20057;-63
2022/05/16 07:03:42;;;;;;;12.65;4.53;;;;;;;20.10;48.26;100090.47;10376354;28;20141;-63
2022/05/16 07:08:50;;;;;;;8.60;4.30;;;;;;;20.14;48.76;100098.00;10377395;28;20756;-63
2022/05/16 07:13:51;;;;;;;7.60;4.30;;;;;;;20.16;47.98;100110.50;10376523;28;20133;-62
2022/05/16 07:18:53;;;;;;;7.45;4.00;;;;;;;20.16;49.21;100105.09;10376618;28;20136;-63
2022/05/16 07:23:54;;;;;;;9.20;3.85;;;;;;;20.26;47.78;100111.03;10376752;28;20136;-63
2022/05/16 07:28:55;;;;;;;9.52;4.13;;;;;;;20.38;47.45;100120.31;10373876;28;20099;-63
2022/05/16 07:33:58;;;;;;;8.68;4.35;;;;;;;20.51;47.99;100113.38;10375525;28;20053;-63
2022/05/16 07:38:59;;;;;;;6.83;3.90;;;;;;;20.68;47.11;100109.44;10374861;28;20049;-63
2022/05/16 07:44:01;;;;;;;8.88;4.22;;;;;;;20.89;47.25;100121.28;10374870;28;20486;-62
2022/05/16 07:49:02;;;;;;;7.82;3.72;;;;;;;21.05;46.86;100121.00;10372114;28;20828;-63
2022/05/16 07:54:04;;;;;;;5.45;3.85;;;;;;;20.94;45.93;100095.31;10373763;28;20132;-63
2022/05/16 07:59:06;;;;;;;4.57;3.60;;;;;;;21.15;46.00;100091.75;10371689;28;20052;-63
2022/05/16 08:04:08;;;;;;;7.50;4.10;;;;;;;21.40;44.65;100128.34;10372647;28;20071;-63
2022/05/16 08:14:29;;;;;;;6.07;2.97;;;;;;;21.30;45.03;100128.69;10375082;28;20540;-63
2022/05/16 08:19:33;;;;;;;11.10;3.53;;;;;;;21.35;45.70;100127.06;10371247;28;20053;-62
2022/05/16 08:24:35;;;;;;;5.78;4.57;;;;;;;21.18;45.68;100072.41;10371076;28;20143;-63
2022/05/16 08:29:36;;;;;;;4.68;3.55;;;;;;;21.78;45.23;100147.75;10376576;28;20415;-63
2022/05/16 08:34:38;;;;;;;4.32;3.45;;;;;;;21.88;45.51;100142.81;10374980;28;20099;-64
2022/05/16 08:39:52;;;;;;;5.85;3.50;;;;;;;21.70;45.49;100120.84;10382589;28;20053;-64
2022/05/16 08:45:03;;;;;;;6.13;3.35;;;;;;;22.01;46.03;100142.06;10383612;28;20045;-63
2022/05/16 08:50:13;;;;;;;6.13;3.97;;;;;;;22.44;45.28;100146.41;10386382;28;20128;-62
2022/05/16 08:55:26;;;;;;;4.30;3.08;;;;;;;22.70;45.11;100152.94;10372938;28;20219;-64
2022/05/16 09:00:35;;;;;;;7.57;4.00;;;;;;;22.78;44.87;100160.91;10369680;28;20141;-64
2022/05/16 09:05:44;;;;;;;7.43;4.22;;;;;;;23.01;44.83;100151.53;10372470;28;20053;-64
2022/05/16 09:11:16;;;;;;;5.95;3.08;;;;;;;23.24;44.14;100149.28;10371645;28;20124;-63
2022/05/16 09:16:37;;;;;;;6.87;4.60;;;;;;;23.29;44.50;100144.03;10373799;28;20053;-64
2022/05/16 09:21:56;;;;;;;4.22;3.38;;;;;;;23.45;44.17;100131.94;10372718;28;20683;-63
2022/05/16 09:28:34;;;;;;;7.40;3.45;;;;;;;23.67;43.83;100134.38;10372195;28;20775;-63
2022/05/16 09:32:48;;;;;;;4.20;3.50;;;;;;;24.11;43.18;100140.13;10371460;28;20073;-64
2022/05/16 09:37:53;;;;;;;7.82;3.88;;;;;;;24.49;43.25;100139.31;10374459;28;20079;-63
2022/05/16 09:42:55;;;;;;;8.00;3.22;;;;;;;24.86;42.22;100147.69;10371694;28;20487;-63
2022/05/16 09:48:00;;;;;;;6.82;3.78;;;;;;;24.92;41.74;100140.53;10376815;28;20064;-64
2022/05/16 09:53:13;;;;;;;5.47;4.07;;;;;;;25.03;41.69;100131.66;10378736;28;20146;-64
2022/05/16 09:58:18;;;;;;;5.03;3.10;;;;;;;25.40;41.08;100139.94;10379846;28;20138;-64
2022/05/16 10:03:31;;;;;;;8.15;3.88;;;;;;;25.62;40.75;100143.09;10378455;28;20517;-63
2022/05/16 10:08:38;;;;;;;8.38;3.80;;;;;;;25.71;41.69;100133.53;10376487;28;20072;-63
2022/05/16 10:13:40;;;;;;;6.65;3.95;;;;;;;26.33;39.81;100151.72;10377352;28;20045;-63
2022/05/16 10:18:49;;;;;;;8.75;3.35;;;;;;;26.27;40.27;100147.19;10379175;28;20055;-64
2022/05/16 10:23:52;;;;;;;4.95;3.38;;;;;;;26.66;40.03;100150.41;10379095;28;20564;-63
2022/05/16 10:28:58;;;;;;;5.78;2.90;;;;;;;27.16;38.09;100117.31;10381893;28;20054;-63
2022/05/16 10:34:06;;;;;;;6.50;3.55;;;;;;;27.52;38.38;100159.19;10377478;28;20535;-62
2022/05/16 10:39:13;;;;;;;6.78;3.00;;;;;;;27.72;37.91;100155.25;10377171;28;20046;-64
2022/05/16 10:44:25;;;;;;;4.97;3.35;;;;;;;27.95;37.32;100143.41;10372055;28;20484;-64
2022/05/16 10:49:34;;;;;;;5.53;3.60;;;;;;;28.54;36.87;100143.25;10380186;28;20132;-64
2022/05/16 10:54:35;;;;;;;5.40;3.47;;;;;;;28.65;36.37;100140.75;10376478;28;20049;-63
2022/05/16 10:59:53;;;;;;;4.47;3.60;;;;;;;28.83;36.41;100134.22;10376551;28;20064;-63
2022/05/16 11:05:13;;;;;;;4.90;2.90;;;;;;;28.99;36.59;100144.34;10376872;28;20048;-63
2022/05/16 11:10:26;;;;;;;6.13;3.15;;;;;;;28.75;36.62;100127.25;10382308;28;20359;-63
2022/05/16 11:15:34;;;;;;;8.38;3.67;;;;;;;29.14;35.97;100130.06;10382293;28;20076;-64
2022/05/16 11:20:42;;;;;;;6.70;2.65;;;;;;;29.14;35.99;100101.81;10375945;28;20536;-63
2022/05/16 11:25:54;;;;;;;4.28;2.70;;;;;;;29.38;36.02;100107.97;10376479;28;20045;-63
2022/05/16 11:31:16;;;;;;;4.80;3.20;;;;;;;29.64;35.05;100083.66;10375642;28;20049;-63
2022/05/16 11:36:29;;;;;;;5.05;3.60;;;;;;;29.97;35.19;100085.47;10375003;28;20060;-63
2022/05/16 11:41:40;;;;;;;5.88;3.22;;;;;;;29.75;35.34;100079.97;10377248;28;20728;-64
2022/05/16 11:46:52;;;;;;;8.70;3.17;;;;;;;29.12;36.21;100082.91;10375050;28;20061;-63
2022/05/16 11:52:42;;;;;;;5.80;3.55;;;;;;;28.43;37.68;100078.44;10374588;28;20768;-63
2022/05/16 12:03:06;;;;;;;7.95;4.22;;;;;;;27.62;39.66;100087.50;10375516;28;20037;-62
2022/05/16 12:08:14;;;;;;;4.60;3.58;;;;;;;27.38;44.17;100102.25;10373406;28;20127;-62
2022/05/16 12:13:39;;;;;;;7.03;3.70;;;;;;;26.88;43.58;100081.66;10375410;28;20473;-63
2022/05/16 12:18:47;;;;;;;6.68;2.95;;;;;;;26.58;43.05;100102.47;10376727;28;20830;-63
2022/05/16 12:23:51;;;;;;;8.40;3.35;;;;;;;26.39;43.17;100111.75;10375502;28;20076;-62
2022/05/16 12:29:08;;;;;;;7.20;2.33;;;;;;;25.92;44.00;100101.44;10382493;28;20053;-62
2022/05/16 12:34:09;;;;;;;7.10;2.85;;;;;;;25.61;46.62;100122.31;10378494;28;20115;-62
2022/05/16 12:39:32;;;;;;;6.80;2.13;;;;;;;25.40;48.56;100105.38;10372079;28;20063;-64
2022/05/16 12:44:57;;;;;;;8.55;2.97;;;;;;;25.45;54.46;100099.25;10372786;28;20480;-62
2022/05/16 12:50:20;;;;;;;8.88;3.58;;;;;;;25.64;52.62;100089.19;10372724;28;22974;-64
2022/05/16 12:55:54;;;;;;;4.78;2.80;;;;;;;26.33;51.47;100099.88;10372640;28;20049;-63
2022/05/16 13:01:11;;;;;;;6.95;3.88;;;;;;;26.54;52.01;100108.63;10371765;28;20042;-63
2022/05/16 13:06:31;;;;;;;10.23;4.10;;;;;;;26.20;53.00;100113.72;10372066;28;20411;-64
2022/05/16 13:11:39;;;;;;;7.32;2.72;;;;;;;25.82;51.21;100103.88;10369490;28;20152;-64
2022/05/16 13:17:04;;;;;;;5.22;2.20;;;;;;;25.64;50.55;100089.19;10372863;28;20582;-64
2022/05/16 13:22:17;;;;;;;4.45;2.25;;;;;;;25.90;48.97;100070.84;10372551;28;20076;-62
2022/05/16 13:32:41;;;;;;;;;;;;;;;26.41;48.57;100069.56;10370307;28;20050;-63
2022/05/16 13:37:49;;;;;;;4.75;2.60;;;;;;;26.53;47.96;100075.03;10372333;28;20262;-63
2022/05/16 13:42:54;;;;;;;5.63;2.03;;;;;;;26.78;47.20;100076.78;10374759;28;20400;-63
2022/05/16 13:48:09;;;;;;;4.47;1.48;;;;;;;26.33;47.81;100077.22;10374217;28;20129;-63
2022/05/16 13:53:18;;;;;;;5.15;1.45;;;;;;;26.28;47.39;100097.84;10371699;28;20129;-63
2022/05/16 13:58:20;;;;;;;5.40;2.03;;;;;;;26.66;46.83;100095.00;10370981;28;20132;-63
2022/05/16 14:03:33;;;;;;;3.70;1.73;;;;;;;27.07;42.89;100090.56;10373691;28;20136;-63
2022/05/16 14:08:40;;;;;;;3.42;1.48;;;;;;;27.00;41.05;100077.03;10372308;28;20148;-64
2022/05/16 14:13:45;;;;;;;4.32;1.23;;;;;;;26.96;40.94;100082.16;10369752;28;20578;-67
2022/05/16 14:18:50;;;;;;;5.18;1.60;;;;;;;26.57;42.92;100087.16;10370402;28;20096;-63
2022/05/16 14:24:08;;;;;;;8.23;2.60;;;;;;;25.91;43.38;100067.91;10369379;28;20041;-63
2022/05/16 14:29:27;;;;;;;5.30;2.10;;;;;;;25.65;44.29;100115.38;10370128;28;20055;-63
2022/05/16 14:34:36;;;;;;;4.65;1.60;;;;;;;25.40;45.12;100094.47;10375625;28;20603;-62
2022/05/16 14:40:00;;;;;;;7.47;2.28;;;;;;;25.19;45.93;100113.91;10378446;28;20148;-63
2022/05/16 14:45:07;;;;;;;4.47;1.83;;;;;;;24.92;46.37;100116.88;10376755;28;20072;-63
2022/05/16 14:50:22;;;;;;;6.20;1.92;;;;;;;24.83;46.92;100112.75;10376022;28;20080;-63
2022/05/16 14:55:40;;;;;;;5.25;1.65;;;;;;;24.65;48.08;100105.34;10376868;28;20214;-63
2022/05/16 15:06:04;;;;;;;6.13;2.28;;;;;;;24.62;48.56;100114.78;10374985;28;20051;-63
2022/05/16 15:11:06;;;;;;;5.38;2.30;;;;;;;24.51;48.63;100129.06;10377117;28;20719;-63
2022/05/16 15:16:08;;;;;;;5.95;2.33;;;;;;;24.40;49.92;100127.03;10373399;28;20061;-63
2022/05/16 15:21:10;;;;;;;5.10;2.40;;;;;;;24.31;50.67;100129.16;10374030;28;20654;-63
2022/05/16 15:26:13;;;;;;;5.80;2.43;;;;;;;24.09;51.60;100139.50;10375564;28;20129;-63
2022/05/16 15:31:15;;;;;;;;;;;;;;;23.99;52.26;100127.22;10374757;28;20129;-63
2022/05/16 15:36:17;;;;;;;6.13;2.83;;;;;;;23.96;52.30;100148.53;10376000;28;20014;-64
2022/05/16 15:41:19;;;;;;;7.28;2.60;;;;;;;23.83;53.27;100163.00;10376118;28;20056;-63
2022/05/16 15:46:20;;;;;;;3.85;2.00;;;;;;;23.56;50.74;100152.16;10375264;28;20056;-63
2022/05/16 15:51:22;;;;;;;3.17;1.13;;;;;;;23.32;49.91;100160.97;10376027;28;20049;-64
2022/05/16 15:56:23;;;;;;;3.78;1.67;;;;;;;23.36;51.00;100203.81;10376482;28;20053;-63
2022/05/16 16:01:26;;;;;;;4.78;2.05;;;;;;;23.01;52.44;100186.81;10377174;28;20137;-63
2022/05/16 16:11:48;;;;;;;3.60;1.95;;;;;;;22.44;56.57;100216.94;10389266;28;20652;-63
2022/05/16 16:16:51;;;;;;;4.57;1.83;;;;;;;22.18;58.32;100223.88;10383654;28;20116;-63
2022/05/16 16:21:54;;;;;;;3.85;1.88;;;;;;;22.16;58.94;100228.66;10377901;28;20099;-63
2022/05/16 16:26:56;;;;;;;4.97;2.55;;;;;;;21.92;60.90;100230.00;10373228;28;20187;-63
2022/05/16 16:31:57;;;;;;;7.05;2.70;;;;;;;21.74;65.39;100225.06;10370540;28;20455;-63
2022/05/16 16:36:59;;;;;;;4.55;2.00;;;;;;;21.66;66.62;100227.91;10368522;28;20115;-63
2022/05/16 16:42:03;;;;;;;5.55;2.28;;;;;;;21.65;66.83;100234.38;10368439;28;20094;-63
2022/05/16 16:47:05;;;;;;;4.15;2.38;;;;;;;21.41;66.20;100246.41;10385036;28;20045;-63
2022/05/16 16:57:29;;;;;;;4.35;1.75;;;;;;;21.17;68.77;100254.75;10367154;28;20097;-64
2022/05/16 17:02:54;;;;;;;4.57;2.35;;;;;;;21.52;70.40;100290.09;10368567;28;20057;-63
2022/05/16 17:08:01;;;;;;;4.45;2.00;;;;;;;21.64;69.03;100276.03;10368225;28;20051;-63
2022/05/16 17:13:22;;;;;;;5.03;2.10;;;;;;;21.52;71.62;100267.59;10368307;28;20059;-63
2022/05/16 17:18:26;;;;;;;5.32;2.33;;;;;;;21.68;70.06;100286.28;10366691;28;20053;-63
2022/05/16 17:23:30;;;;;;;4.60;2.17;;;;;;;21.52;67.21;100265.72;10366149;28;20336;-63
2022/05/16 17:28:32;;;;;;;6.13;3.05;;;;;;;21.47;71.29;100276.28;10366811;28;20492;-63
2022/05/16 17:33:34;;;;;;;3.38;2.58;;;;;;;21.48;71.88;100267.13;10369113;28;20076;-63
2022/05/16 17:38:50;;;;;;;4.28;1.88;;;;;;;21.52;71.39;100281.97;10373231;28;20140;-62
2022/05/16 17:43:51;;;;;;;3.25;2.47;;;;;;;21.45;69.08;100266.66;10371589;28;20052;-65
2022/05/16 17:48:53;;;;;;;3.35;1.98;;;;;;;21.43;71.58;100276.88;10370520;28;20120;-63
2022/05/16 17:53:57;;;;;;;4.70;2.75;;;;;;;21.53;71.43;100290.94;10368899;28;20061;-64
2022/05/16 17:59:01;;;;;;;4.35;2.55;;;;;;;21.44;71.51;100287.50;10366461;28;20499;-63
2022/05/16 18:04:02;;;;;;;4.78;2.80;;;;;;;21.49;71.19;100301.28;10367044;28;20053;-63
2022/05/16 18:09:06;;;;;;;5.15;2.97;;;;;;;21.34;69.25;100309.47;10371660;28;20788;-64
2022/05/16 18:14:15;;;;;;;6.53;3.50;;;;;;;21.55;73.36;100337.63;10375306;28;20507;-64
2022/05/16 18:19:19;;;;;;;6.65;4.38;;;;;;;21.32;73.63;100305.31;10376207;28;20531;-64
2022/05/16 18:24:20;;;;;;;5.07;3.92;;;;;;;21.56;73.85;100346.56;10375874;28;22838;-63
2022/05/16 18:29:22;;;;;;;8.60;4.35;;;;;;;21.34;74.04;100327.59;10375803;28;20378;-63
2022/05/16 18:34:23;;;;;;;7.03;3.33;;;;;;;21.25;72.15;100340.41;10375831;28;20061;-65
2022/05/16 18:39:26;;;;;;;7.60;3.83;;;;;;;20.98;69.38;100320.31;10381529;28;20056;-65
2022/05/16 18:55:08;;;;;;;5.32;3.88;;;;;;;21.02;69.28;100405.50;10372207;28;20111;-64
2022/05/16 19:00:15;;;;;;;7.07;4.30;;;;;;;20.68;70.50;100374.47;10374456;28;20547;-64
2022/05/16 19:05:17;;;;;;;7.63;4.40;;;;;;;20.99;69.94;100419.41;10373517;28;20103;-64
2022/05/16 19:10:20;;;;;;;5.32;4.07;;;;;;;20.98;69.88;100425.84;10375801;28;20060;-64
2022/05/16 19:15:22;;;;;;;5.40;3.33;;;;;;;20.98;67.89;100436.69;10373794;28;20120;-65
2022/05/16 19:20:25;;;;;;;4.30;3.50;;;;;;;20.89;68.68;100440.50;10375958;28;20041;-64
2022/05/16 19:25:26;;;;;;;6.20;4.00;;;;;;;20.90;67.27;100436.78;10375598;28;20049;-64
2022/05/16 19:35:54;;;;;;;6.47;3.65;;;;;;;20.87;68.39;100447.94;10373762;28;20069;-64
2022/05/16 19:40:55;;;;;;;5.57;3.60;;;;;;;20.87;69.00;100453.38;10372558;28;20051;-64
2022/05/16 19:45:57;;;;;;;9.73;4.03;;;;;;;20.70;67.66;100461.66;10374116;28;20134;-64
2022/05/16 19:50:58;;;;;;;5.88;5.28;;;;;;;20.75;68.45;100456.53;10374477;28;20564;-64
2022/05/16 19:56:01;;;;;;;5.20;3.50;;;;;;;20.79;69.72;100457.88;10372262;28;20443;-64
2022/05/16 20:01:03;;;;;;;6.72;4.10;;;;;;;20.86;69.60;100468.75;10374095;28;20053;-64
2022/05/16 20:06:06;;;;;;;7.87;4.40;;;;;;;20.82;69.37;100462.91;10366769;28;20240;-65
2022/05/16 20:11:08;;;;;;;5.55;3.97;;;;;;;20.90;68.24;100471.97;10373712;28;20444;-63
2022/05/16 20:16:09;;;;;;;6.30;4.03;;;;;;;20.69;69.43;100438.34;10371355;28;20660;-63
2022/05/16 20:21:11;;;;;;;7.22;4.28;;;;;;;20.87;68.95;100475.00;10374491;28;20496;-64
2022/05/16 20:26:12;;;;;;;5.25;4.32;;;;;;;20.84;69.24;100471.66;10372973;28;20045;-63
2022/05/16 20:31:14;;;;;;;5.35;3.90;;;;;;;20.77;69.83;100475.28;10373730;28;20061;-63
2022/05/16 20:36:15;;;;;;;6.22;4.55;;;;;;;20.61;70.17;100481.66;10375037;28;20073;-64
2022/05/16 20:41:16;;;;;;;7.05;4.82;;;;;;;20.38;69.50;100479.84;10376667;28;20072;-63
2022/05/16 20:46:18;;;;;;;8.63;5.47;;;;;;;20.40;71.10;100482.38;10372535;28;20053;-63
2022/05/16 20:51:19;;;;;;;7.05;5.47;;;;;;;20.33;71.56;100482.25;10373153;28;20046;-63
2022/05/16 20:56:21;;;;;;;6.25;5.65;;;;;;;20.32;71.38;100488.69;10369699;28;20057;-63
2022/05/16 21:01:30;;;;;;;6.50;5.28;;;;;;;20.07;71.41;100453.75;10369021;28;20528;-63
2022/05/16 21:06:32;;;;;;;5.93;4.75;;;;;;;20.25;70.61;100483.19;10371611;28;20312;-63
2022/05/16 21:11:34;;;;;;;6.35;5.13;;;;;;;20.20;71.65;100490.13;10381503;28;20060;-63
2022/05/16 21:16:35;;;;;;;7.45;5.13;;;;;;;20.20;71.79;100482.88;10371609;28;20049;-63
2022/05/16 21:21:37;;;;;;;6.80;4.80;;;;;;;20.18;70.57;100487.63;10370417;28;20572;-64
2022/05/16 21:26:39;;;;;;;8.32;5.85;;;;;;;20.17;71.02;100494.03;10371986;28;20772;-63
2022/05/16 21:31:40;;;;;;;5.20;4.70;;;;;;;20.08;70.60;100477.03;10370549;28;21119;-63
2022/05/16 21:36:41;;;;;;;5.75;4.90;;;;;;;20.11;69.99;100492.06;10369414;28;20057;-63
2022/05/16 21:41:43;;;;;;;7.70;5.20;;;;;;;20.03;69.27;100486.72;10371240;28;20054;-63
2022/05/16 21:46:45;;;;;;;7.63;5.45;;;;;;;19.98;69.72;100497.22;10367561;28;20061;-63
2022/05/16 21:51:47;;;;;;;6.53;4.75;;;;;;;19.92;68.12;100493.38;10369607;28;20799;-63
2022/05/16 21:56:49;;;;;;;5.38;4.80;;;;;;;19.88;69.95;100497.47;10370413;28;20519;-63
2022/05/16 22:01:51;;;;;;;7.25;4.97;;;;;;;19.90;69.99;100509.75;10371664;28;20069;-63
2022/05/16 22:06:53;;;;;;;7.97;5.10;;;;;;;19.83;70.13;100516.91;10370858;28;20120;-63
2022/05/16 22:11:55;;;;;;;5.68;5.15;;;;;;;19.80;69.35;100519.09;10369567;28;20397;-63
2022/05/16 22:16:58;;;;;;;5.67;5.00;;;;;;;19.61;69.90;100491.50;10371083;28;20140;-67
2022/05/16 22:22:04;;;;;;;5.95;5.05;;;;;;;19.73;69.35;100522.50;10370490;28;20480;-63
2022/05/16 22:27:06;;;;;;;8.95;5.50;;;;;;;19.68;70.41;100519.50;10369334;28;20063;-63
2022/05/16 22:32:08;;;;;;;7.20;5.35;;;;;;;19.66;70.53;100529.59;10368437;28;20060;-63
2022/05/16 22:37:09;;;;;;;7.03;5.88;;;;;;;19.60;71.39;100533.84;10368662;28;20053;-63
2022/05/16 22:42:17;;;;;;;10.00;7.13;;;;;;;19.35;72.01;100499.88;10368194;28;20052;-63
2022/05/16 22:47:19;;;;;;;7.43;5.88;;;;;;;19.52;72.28;100541.16;10368852;28;21547;-63
2022/05/16 22:52:20;;;;;;;9.70;6.47;;;;;;;19.50;72.74;100537.78;10371346;28;20578;-62
2022/05/16 22:57:22;;;;;;;7.38;6.45;;;;;;;19.45;72.62;100550.97;10376058;28;20124;-62
2022/05/16 23:07:44;;;;;;;7.35;5.47;;;;;;;19.36;72.78;100559.09;10377158;28;20057;-63
2022/05/16 23:12:46;;;;;;;9.15;7.50;;;;;;;19.28;73.13;100542.94;10374672;28;20050;-63
2022/05/16 23:17:47;;;;;;;7.65;6.78;;;;;;;19.27;73.52;100552.03;10377570;28;20049;-63
2022/05/16 23:22:49;;;;;;;8.57;6.97;;;;;;;19.24;73.75;100544.28;10376200;28;20073;-64
2022/05/16 23:27:50;;;;;;;7.10;6.35;;;;;;;18.91;73.81;100522.78;10376443;28;20056;-63
2022/05/16 23:32:52;;;;;;;8.77;6.75;;;;;;;19.10;74.32;100542.31;10373452;28;20053;-63
2022/05/16 23:37:55;;;;;;;7.68;6.75;;;;;;;19.08;74.44;100550.59;10380528;28;20138;-63
2022/05/16 23:42:57;;;;;;;8.07;7.27;;;;;;;18.88;74.70;100528.50;10378189;28;20049;-63
2022/05/16 23:47:58;;;;;;;7.28;6.65;;;;;;;18.87;74.73;100526.81;10374955;28;20596;-65
2022/05/16 23:53:00;;;;;;;8.18;7.03;;;;;;;19.00;74.51;100551.41;10370245;28;20053;-63
2022/05/16 23:58:01;;;;;;;8.82;7.88;;;;;;;19.00;74.88;100562.19;10373959;28;20555;-63
